sensor_id;sensor_type;location;lat;lon;timestamp;P1;durP1;ratioP1;P2;durP2;ratioP2
69280;SDS011;56392;51.082;17.080;2024-03-06T00:00:27;45.03;;;21.15;;
69280;SDS011;56392;51.082;17.080;2024-03-06T00:06:12;45.92;;;20.58;;
69280;SDS011;56392;51.082;17.080;2024-03-06T00:11:35;48.40;;;20.93;;
69280;SDS011;56392;51.082;17.080;2024-03-06T00:16:58;46.75;;;21.40;;
69280;SDS011;56392;51.082;17.080;2024-03-06T00:22:23;49.08;;;21.77;;
69280;SDS011;56392;51.082;17.080;2024-03-06T00:27:46;49.90;;;22.17;;
69280;SDS011;56392;51.082;17.080;2024-03-06T00:33:09;48.03;;;21.33;;
69280;SDS011;56392;51.082;17.080;2024-03-06T00:38:33;48.42;;;21.83;;
69280;SDS011;56392;51.082;17.080;2024-03-06T00:43:57;50.53;;;22.33;;
69280;SDS011;56392;51.082;17.080;2024-03-06T00:49:20;49.83;;;21.60;;
69280;SDS011;56392;51.082;17.080;2024-03-06T00:54:44;48.25;;;21.77;;
69280;SDS011;56392;51.082;17.080;2024-03-06T01:00:08;48.30;;;22.05;;
69280;SDS011;56392;51.082;17.080;2024-03-06T01:05:33;45.47;;;20.83;;
69280;SDS011;56392;51.082;17.080;2024-03-06T01:10:57;48.22;;;21.40;;
69280;SDS011;56392;51.082;17.080;2024-03-06T01:16:21;50.10;;;21.77;;
69280;SDS011;56392;51.082;17.080;2024-03-06T01:21:44;46.67;;;21.07;;
69280;SDS011;56392;51.082;17.080;2024-03-06T01:27:09;50.72;;;22.58;;
69280;SDS011;56392;51.082;17.080;2024-03-06T01:32:32;49.17;;;21.95;;
69280;SDS011;56392;51.082;17.080;2024-03-06T01:37:55;48.50;;;22.00;;
69280;SDS011;56392;51.082;17.080;2024-03-06T01:43:22;50.50;;;22.63;;
69280;SDS011;56392;51.082;17.080;2024-03-06T01:48:47;45.03;;;22.20;;
69280;SDS011;56392;51.082;17.080;2024-03-06T01:54:10;51.20;;;21.90;;
69280;SDS011;56392;51.082;17.080;2024-03-06T01:59:35;49.33;;;20.60;;
69280;SDS011;56392;51.082;17.080;2024-03-06T02:04:59;50.92;;;22.98;;
69280;SDS011;56392;51.082;17.080;2024-03-06T02:10:22;48.97;;;22.42;;
69280;SDS011;56392;51.082;17.080;2024-03-06T02:15:49;51.30;;;21.43;;
69280;SDS011;56392;51.082;17.080;2024-03-06T02:21:13;51.67;;;22.70;;
69280;SDS011;56392;51.082;17.080;2024-03-06T02:26:36;51.97;;;23.08;;
69280;SDS011;56392;51.082;17.080;2024-03-06T02:31:59;54.00;;;22.07;;
69280;SDS011;56392;51.082;17.080;2024-03-06T02:37:26;51.73;;;23.03;;
69280;SDS011;56392;51.082;17.080;2024-03-06T02:42:49;54.65;;;24.00;;
69280;SDS011;56392;51.082;17.080;2024-03-06T02:48:12;58.45;;;24.08;;
69280;SDS011;56392;51.082;17.080;2024-03-06T02:53:37;53.37;;;23.47;;
69280;SDS011;56392;51.082;17.080;2024-03-06T02:59:00;54.33;;;24.88;;
69280;SDS011;56392;51.082;17.080;2024-03-06T03:04:24;53.50;;;23.05;;
69280;SDS011;56392;51.082;17.080;2024-03-06T03:09:49;49.83;;;23.13;;
69280;SDS011;56392;51.082;17.080;2024-03-06T03:15:12;52.13;;;22.65;;
69280;SDS011;56392;51.082;17.080;2024-03-06T03:20:36;55.55;;;23.80;;
69280;SDS011;56392;51.082;17.080;2024-03-06T03:26:01;52.80;;;22.50;;
69280;SDS011;56392;51.082;17.080;2024-03-06T03:31:25;54.50;;;24.00;;
69280;SDS011;56392;51.082;17.080;2024-03-06T03:36:48;55.35;;;23.50;;
69280;SDS011;56392;51.082;17.080;2024-03-06T03:42:12;54.95;;;24.17;;
69280;SDS011;56392;51.082;17.080;2024-03-06T03:47:36;51.30;;;21.97;;
69280;SDS011;56392;51.082;17.080;2024-03-06T03:52:59;58.60;;;24.15;;
69280;SDS011;56392;51.082;17.080;2024-03-06T03:58:24;52.40;;;22.65;;
69280;SDS011;56392;51.082;17.080;2024-03-06T04:03:47;56.83;;;23.03;;
69280;SDS011;56392;51.082;17.080;2024-03-06T04:09:12;59.08;;;24.98;;
69280;SDS011;56392;51.082;17.080;2024-03-06T04:14:37;51.15;;;21.65;;
69280;SDS011;56392;51.082;17.080;2024-03-06T04:20:01;53.87;;;22.13;;
69280;SDS011;56392;51.082;17.080;2024-03-06T04:25:25;52.37;;;22.37;;
69280;SDS011;56392;51.082;17.080;2024-03-06T04:30:50;58.78;;;23.42;;
69280;SDS011;56392;51.082;17.080;2024-03-06T04:36:13;62.38;;;24.17;;
69280;SDS011;56392;51.082;17.080;2024-03-06T04:41:36;62.90;;;24.37;;
69280;SDS011;56392;51.082;17.080;2024-03-06T04:47:01;72.60;;;25.95;;
69280;SDS011;56392;51.082;17.080;2024-03-06T04:52:24;70.47;;;25.42;;
69280;SDS011;56392;51.082;17.080;2024-03-06T04:57:47;61.07;;;24.47;;
69280;SDS011;56392;51.082;17.080;2024-03-06T05:03:13;61.25;;;24.48;;
69280;SDS011;56392;51.082;17.080;2024-03-06T05:08:36;62.00;;;24.02;;
69280;SDS011;56392;51.082;17.080;2024-03-06T05:14:00;56.77;;;23.23;;
69280;SDS011;56392;51.082;17.080;2024-03-06T05:19:26;59.95;;;23.90;;
69280;SDS011;56392;51.082;17.080;2024-03-06T05:24:53;58.33;;;23.50;;
69280;SDS011;56392;51.082;17.080;2024-03-06T05:30:16;59.00;;;23.67;;
69280;SDS011;56392;51.082;17.080;2024-03-06T05:35:40;60.40;;;23.27;;
69280;SDS011;56392;51.082;17.080;2024-03-06T05:41:05;56.25;;;22.75;;
69280;SDS011;56392;51.082;17.080;2024-03-06T05:46:28;58.40;;;22.63;;
69280;SDS011;56392;51.082;17.080;2024-03-06T05:51:53;58.35;;;22.67;;
69280;SDS011;56392;51.082;17.080;2024-03-06T05:57:17;58.60;;;24.00;;
69280;SDS011;56392;51.082;17.080;2024-03-06T06:02:40;55.23;;;22.03;;
69280;SDS011;56392;51.082;17.080;2024-03-06T06:08:05;60.65;;;22.10;;
69280;SDS011;56392;51.082;17.080;2024-03-06T06:13:29;56.63;;;22.60;;
69280;SDS011;56392;51.082;17.080;2024-03-06T06:18:52;55.70;;;21.93;;
69280;SDS011;56392;51.082;17.080;2024-03-06T06:24:17;51.45;;;21.33;;
69280;SDS011;56392;51.082;17.080;2024-03-06T06:29:41;55.88;;;22.92;;
69280;SDS011;56392;51.082;17.080;2024-03-06T06:35:04;53.43;;;22.43;;
69280;SDS011;56392;51.082;17.080;2024-03-06T06:40:32;60.92;;;23.60;;
69280;SDS011;56392;51.082;17.080;2024-03-06T06:45:55;55.20;;;24.15;;
69280;SDS011;56392;51.082;17.080;2024-03-06T06:51:19;53.03;;;22.80;;
69280;SDS011;56392;51.082;17.080;2024-03-06T06:56:43;48.80;;;21.35;;
69280;SDS011;56392;51.082;17.080;2024-03-06T07:02:07;52.20;;;21.10;;
69280;SDS011;56392;51.082;17.080;2024-03-06T07:07:31;48.23;;;20.83;;
69280;SDS011;56392;51.082;17.080;2024-03-06T07:12:55;48.15;;;19.40;;
69280;SDS011;56392;51.082;17.080;2024-03-06T07:18:19;45.17;;;19.88;;
69280;SDS011;56392;51.082;17.080;2024-03-06T07:23:42;43.70;;;19.27;;
69280;SDS011;56392;51.082;17.080;2024-03-06T07:29:06;45.77;;;20.53;;
69280;SDS011;56392;51.082;17.080;2024-03-06T07:34:36;42.10;;;19.38;;
69280;SDS011;56392;51.082;17.080;2024-03-06T07:39:59;41.28;;;18.67;;
69280;SDS011;56392;51.082;17.080;2024-03-06T07:45:23;38.53;;;18.50;;
69280;SDS011;56392;51.082;17.080;2024-03-06T07:50:47;36.80;;;18.70;;
69280;SDS011;56392;51.082;17.080;2024-03-06T07:56:10;38.25;;;19.45;;
69280;SDS011;56392;51.082;17.080;2024-03-06T08:01:35;41.37;;;18.87;;
69280;SDS011;56392;51.082;17.080;2024-03-06T08:06:58;40.35;;;19.70;;
69280;SDS011;56392;51.082;17.080;2024-03-06T08:12:22;38.75;;;20.08;;
69280;SDS011;56392;51.082;17.080;2024-03-06T08:17:47;37.83;;;19.40;;
69280;SDS011;56392;51.082;17.080;2024-03-06T08:23:14;37.63;;;19.67;;
69280;SDS011;56392;51.082;17.080;2024-03-06T08:28:37;39.72;;;20.58;;
69280;SDS011;56392;51.082;17.080;2024-03-06T08:34:02;37.63;;;20.10;;
69280;SDS011;56392;51.082;17.080;2024-03-06T08:39:25;35.63;;;18.80;;
69280;SDS011;56392;51.082;17.080;2024-03-06T08:44:48;37.00;;;18.20;;
69280;SDS011;56392;51.082;17.080;2024-03-06T08:50:13;35.50;;;17.30;;
69280;SDS011;56392;51.082;17.080;2024-03-06T08:55:37;34.43;;;17.00;;
69280;SDS011;56392;51.082;17.080;2024-03-06T09:01:00;30.48;;;15.60;;
69280;SDS011;56392;51.082;17.080;2024-03-06T09:06:25;27.23;;;13.82;;
69280;SDS011;56392;51.082;17.080;2024-03-06T09:11:48;26.57;;;13.87;;
69280;SDS011;56392;51.082;17.080;2024-03-06T09:17:11;25.63;;;12.37;;
69280;SDS011;56392;51.082;17.080;2024-03-06T09:22:37;23.05;;;11.15;;
69280;SDS011;56392;51.082;17.080;2024-03-06T09:28:01;21.77;;;11.43;;
69280;SDS011;56392;51.082;17.080;2024-03-06T09:33:26;21.60;;;10.63;;
69280;SDS011;56392;51.082;17.080;2024-03-06T09:38:50;20.60;;;10.40;;
69280;SDS011;56392;51.082;17.080;2024-03-06T09:44:14;18.80;;;9.65;;
69280;SDS011;56392;51.082;17.080;2024-03-06T09:49:37;20.93;;;9.97;;
69280;SDS011;56392;51.082;17.080;2024-03-06T09:55:02;18.98;;;7.60;;
69280;SDS011;56392;51.082;17.080;2024-03-06T10:00:31;20.50;;;9.77;;
69280;SDS011;56392;51.082;17.080;2024-03-06T10:05:55;20.30;;;9.10;;
69280;SDS011;56392;51.082;17.080;2024-03-06T10:11:20;17.60;;;8.30;;
69280;SDS011;56392;51.082;17.080;2024-03-06T10:16:53;19.17;;;8.48;;
69280;SDS011;56392;51.082;17.080;2024-03-06T10:22:17;17.58;;;7.97;;
69280;SDS011;56392;51.082;17.080;2024-03-06T10:27:42;18.53;;;9.20;;
69280;SDS011;56392;51.082;17.080;2024-03-06T10:33:05;18.67;;;8.05;;
69280;SDS011;56392;51.082;17.080;2024-03-06T10:38:29;18.52;;;8.52;;
69280;SDS011;56392;51.082;17.080;2024-03-06T10:44:02;18.63;;;9.07;;
69280;SDS011;56392;51.082;17.080;2024-03-06T10:49:27;19.42;;;9.95;;
69280;SDS011;56392;51.082;17.080;2024-03-06T10:54:51;22.25;;;11.13;;
69280;SDS011;56392;51.082;17.080;2024-03-06T11:00:17;22.90;;;12.27;;
69280;SDS011;56392;51.082;17.080;2024-03-06T11:05:41;25.63;;;11.93;;
69280;SDS011;56392;51.082;17.080;2024-03-06T11:11:19;24.85;;;11.27;;
69280;SDS011;56392;51.082;17.080;2024-03-06T11:16:58;24.23;;;11.68;;
69280;SDS011;56392;51.082;17.080;2024-03-06T11:28:20;21.60;;;10.95;;
69280;SDS011;56392;51.082;17.080;2024-03-06T11:33:46;20.88;;;10.43;;
69280;SDS011;56392;51.082;17.080;2024-03-06T11:39:10;23.20;;;10.30;;
69280;SDS011;56392;51.082;17.080;2024-03-06T11:44:34;22.05;;;11.13;;
69280;SDS011;56392;51.082;17.080;2024-03-06T11:49:59;23.27;;;9.50;;
69280;SDS011;56392;51.082;17.080;2024-03-06T11:55:23;21.40;;;9.53;;
69280;SDS011;56392;51.082;17.080;2024-03-06T12:00:47;19.57;;;9.87;;
69280;SDS011;56392;51.082;17.080;2024-03-06T12:06:11;20.27;;;9.48;;
69280;SDS011;56392;51.082;17.080;2024-03-06T12:11:36;19.13;;;9.75;;
69280;SDS011;56392;51.082;17.080;2024-03-06T12:16:59;21.13;;;10.40;;
69280;SDS011;56392;51.082;17.080;2024-03-06T12:22:27;20.23;;;9.57;;
69280;SDS011;56392;51.082;17.080;2024-03-06T12:27:50;19.30;;;9.85;;
69280;SDS011;56392;51.082;17.080;2024-03-06T12:33:16;22.47;;;10.77;;
69280;SDS011;56392;51.082;17.080;2024-03-06T12:38:43;20.35;;;10.93;;
69280;SDS011;56392;51.082;17.080;2024-03-06T12:44:06;20.65;;;9.50;;
69280;SDS011;56392;51.082;17.080;2024-03-06T12:49:30;19.83;;;9.53;;
69280;SDS011;56392;51.082;17.080;2024-03-06T12:54:55;19.27;;;9.83;;
69280;SDS011;56392;51.082;17.080;2024-03-06T13:00:19;21.13;;;9.20;;
69280;SDS011;56392;51.082;17.080;2024-03-06T13:05:43;20.25;;;10.30;;
69280;SDS011;56392;51.082;17.080;2024-03-06T13:11:09;21.27;;;10.43;;
69280;SDS011;56392;51.082;17.080;2024-03-06T13:16:33;24.58;;;10.52;;
69280;SDS011;56392;51.082;17.080;2024-03-06T13:21:56;27.80;;;12.20;;
69280;SDS011;56392;51.082;17.080;2024-03-06T13:27:20;26.93;;;11.63;;
69280;SDS011;56392;51.082;17.080;2024-03-06T13:32:43;26.35;;;11.88;;
69280;SDS011;56392;51.082;17.080;2024-03-06T13:38:07;27.33;;;12.48;;
69280;SDS011;56392;51.082;17.080;2024-03-06T13:43:31;26.37;;;12.40;;
69280;SDS011;56392;51.082;17.080;2024-03-06T13:48:55;27.27;;;13.07;;
69280;SDS011;56392;51.082;17.080;2024-03-06T13:54:18;28.88;;;13.45;;
69280;SDS011;56392;51.082;17.080;2024-03-06T13:59:42;27.67;;;13.40;;
69280;SDS011;56392;51.082;17.080;2024-03-06T14:05:06;29.17;;;14.73;;
69280;SDS011;56392;51.082;17.080;2024-03-06T14:10:29;29.48;;;14.25;;
69280;SDS011;56392;51.082;17.080;2024-03-06T14:15:57;32.20;;;14.65;;
69280;SDS011;56392;51.082;17.080;2024-03-06T14:21:21;34.50;;;16.07;;
69280;SDS011;56392;51.082;17.080;2024-03-06T14:26:46;32.05;;;15.20;;
69280;SDS011;56392;51.082;17.080;2024-03-06T14:32:11;38.47;;;16.48;;
69280;SDS011;56392;51.082;17.080;2024-03-06T14:37:35;34.17;;;16.10;;
69280;SDS011;56392;51.082;17.080;2024-03-06T14:43:00;33.70;;;16.23;;
69280;SDS011;56392;51.082;17.080;2024-03-06T14:48:24;29.60;;;14.80;;
69280;SDS011;56392;51.082;17.080;2024-03-06T14:53:50;31.92;;;14.60;;
69280;SDS011;56392;51.082;17.080;2024-03-06T14:59:13;32.87;;;14.90;;
69280;SDS011;56392;51.082;17.080;2024-03-06T15:04:37;30.05;;;13.73;;
69280;SDS011;56392;51.082;17.080;2024-03-06T15:10:01;30.30;;;13.35;;
69280;SDS011;56392;51.082;17.080;2024-03-06T15:15:24;27.43;;;12.50;;
69280;SDS011;56392;51.082;17.080;2024-03-06T15:20:49;29.73;;;12.32;;
69280;SDS011;56392;51.082;17.080;2024-03-06T15:26:12;28.33;;;12.25;;
69280;SDS011;56392;51.082;17.080;2024-03-06T15:31:35;24.87;;;11.47;;
69280;SDS011;56392;51.082;17.080;2024-03-06T15:37:00;27.53;;;11.60;;
69280;SDS011;56392;51.082;17.080;2024-03-06T15:42:24;30.38;;;11.73;;
69280;SDS011;56392;51.082;17.080;2024-03-06T15:47:48;26.42;;;11.85;;
69280;SDS011;56392;51.082;17.080;2024-03-06T15:53:12;28.17;;;12.87;;
69280;SDS011;56392;51.082;17.080;2024-03-06T15:58:35;29.15;;;12.57;;
69280;SDS011;56392;51.082;17.080;2024-03-06T16:03:59;29.25;;;13.32;;
69280;SDS011;56392;51.082;17.080;2024-03-06T16:09:24;35.23;;;14.07;;
69280;SDS011;56392;51.082;17.080;2024-03-06T16:14:47;31.10;;;14.52;;
69280;SDS011;56392;51.082;17.080;2024-03-06T16:20:10;32.50;;;14.90;;
69280;SDS011;56392;51.082;17.080;2024-03-06T16:25:35;35.03;;;14.50;;
69280;SDS011;56392;51.082;17.080;2024-03-06T16:30:58;37.97;;;15.93;;
69280;SDS011;56392;51.082;17.080;2024-03-06T16:36:21;38.58;;;16.70;;
69280;SDS011;56392;51.082;17.080;2024-03-06T16:41:46;35.85;;;17.23;;
69280;SDS011;56392;51.082;17.080;2024-03-06T16:47:09;37.10;;;16.37;;
69280;SDS011;56392;51.082;17.080;2024-03-06T16:52:32;38.25;;;16.55;;
69280;SDS011;56392;51.082;17.080;2024-03-06T16:57:57;36.88;;;16.02;;
69280;SDS011;56392;51.082;17.080;2024-03-06T17:03:21;32.37;;;15.33;;
69280;SDS011;56392;51.082;17.080;2024-03-06T17:08:45;36.88;;;16.10;;
69280;SDS011;56392;51.082;17.080;2024-03-06T17:14:10;32.60;;;16.10;;
69280;SDS011;56392;51.082;17.080;2024-03-06T17:19:34;33.50;;;16.10;;
69280;SDS011;56392;51.082;17.080;2024-03-06T17:24:58;35.90;;;15.33;;
69280;SDS011;56392;51.082;17.080;2024-03-06T17:30:23;35.90;;;15.35;;
69280;SDS011;56392;51.082;17.080;2024-03-06T17:35:48;40.08;;;17.02;;
69280;SDS011;56392;51.082;17.080;2024-03-06T17:41:11;36.00;;;16.70;;
69280;SDS011;56392;51.082;17.080;2024-03-06T17:46:36;37.67;;;17.23;;
69280;SDS011;56392;51.082;17.080;2024-03-06T17:52:00;34.05;;;16.05;;
69280;SDS011;56392;51.082;17.080;2024-03-06T17:57:23;35.47;;;16.00;;
69280;SDS011;56392;51.082;17.080;2024-03-06T18:02:48;38.05;;;16.45;;
69280;SDS011;56392;51.082;17.080;2024-03-06T18:08:14;35.60;;;16.63;;
69280;SDS011;56392;51.082;17.080;2024-03-06T18:13:38;34.27;;;15.43;;
69280;SDS011;56392;51.082;17.080;2024-03-06T18:19:03;38.30;;;16.07;;
69280;SDS011;56392;51.082;17.080;2024-03-06T18:24:26;35.03;;;15.23;;
69280;SDS011;56392;51.082;17.080;2024-03-06T18:29:50;34.53;;;15.90;;
69280;SDS011;56392;51.082;17.080;2024-03-06T18:35:14;35.13;;;15.70;;
69280;SDS011;56392;51.082;17.080;2024-03-06T18:40:38;37.38;;;16.35;;
69280;SDS011;56392;51.082;17.080;2024-03-06T18:46:01;35.97;;;16.17;;
69280;SDS011;56392;51.082;17.080;2024-03-06T18:51:27;40.20;;;16.13;;
69280;SDS011;56392;51.082;17.080;2024-03-06T18:56:50;39.58;;;17.38;;
69280;SDS011;56392;51.082;17.080;2024-03-06T19:02:16;42.25;;;19.08;;
69280;SDS011;56392;51.082;17.080;2024-03-06T19:07:40;45.17;;;19.40;;
69280;SDS011;56392;51.082;17.080;2024-03-06T19:13:05;55.17;;;20.53;;
69280;SDS011;56392;51.082;17.080;2024-03-06T19:18:28;47.97;;;20.25;;
69280;SDS011;56392;51.082;17.080;2024-03-06T19:23:52;48.58;;;20.85;;
69280;SDS011;56392;51.082;17.080;2024-03-06T19:29:15;52.20;;;19.97;;
69280;SDS011;56392;51.082;17.080;2024-03-06T19:34:40;46.28;;;19.52;;
69280;SDS011;56392;51.082;17.080;2024-03-06T19:40:05;45.50;;;19.38;;
69280;SDS011;56392;51.082;17.080;2024-03-06T19:45:30;49.20;;;20.60;;
69280;SDS011;56392;51.082;17.080;2024-03-06T19:50:53;43.97;;;18.27;;
69280;SDS011;56392;51.082;17.080;2024-03-06T19:56:18;42.40;;;20.38;;
69280;SDS011;56392;51.082;17.080;2024-03-06T20:01:42;47.80;;;20.30;;
69280;SDS011;56392;51.082;17.080;2024-03-06T20:07:05;45.73;;;19.53;;
69280;SDS011;56392;51.082;17.080;2024-03-06T20:12:31;40.72;;;19.13;;
69280;SDS011;56392;51.082;17.080;2024-03-06T20:17:55;44.00;;;18.10;;
69280;SDS011;56392;51.082;17.080;2024-03-06T20:23:18;40.37;;;18.13;;
69280;SDS011;56392;51.082;17.080;2024-03-06T20:28:44;43.58;;;17.25;;
69280;SDS011;56392;51.082;17.080;2024-03-06T20:34:10;39.90;;;17.45;;
69280;SDS011;56392;51.082;17.080;2024-03-06T20:39:33;37.20;;;16.17;;
69280;SDS011;56392;51.082;17.080;2024-03-06T20:44:59;41.20;;;16.45;;
69280;SDS011;56392;51.082;17.080;2024-03-06T20:50:23;35.17;;;14.90;;
69280;SDS011;56392;51.082;17.080;2024-03-06T20:55:48;35.37;;;16.03;;
69280;SDS011;56392;51.082;17.080;2024-03-06T21:01:13;38.17;;;16.17;;
69280;SDS011;56392;51.082;17.080;2024-03-06T21:06:37;41.35;;;16.55;;
69280;SDS011;56392;51.082;17.080;2024-03-06T21:12:00;37.47;;;16.02;;
69280;SDS011;56392;51.082;17.080;2024-03-06T21:17:24;37.33;;;15.50;;
69280;SDS011;56392;51.082;17.080;2024-03-06T21:22:48;34.45;;;14.43;;
69280;SDS011;56392;51.082;17.080;2024-03-06T21:28:15;37.75;;;15.55;;
69280;SDS011;56392;51.082;17.080;2024-03-06T21:33:40;29.87;;;13.80;;
69280;SDS011;56392;51.082;17.080;2024-03-06T21:39:03;37.10;;;15.63;;
69280;SDS011;56392;51.082;17.080;2024-03-06T21:44:29;36.33;;;15.15;;
69280;SDS011;56392;51.082;17.080;2024-03-06T21:49:54;34.93;;;14.93;;
69280;SDS011;56392;51.082;17.080;2024-03-06T21:55:20;36.27;;;15.20;;
69280;SDS011;56392;51.082;17.080;2024-03-06T22:00:43;36.05;;;15.15;;
69280;SDS011;56392;51.082;17.080;2024-03-06T22:06:10;35.88;;;14.35;;
69280;SDS011;56392;51.082;17.080;2024-03-06T22:11:33;34.83;;;15.17;;
69280;SDS011;56392;51.082;17.080;2024-03-06T22:16:59;37.95;;;14.85;;
69280;SDS011;56392;51.082;17.080;2024-03-06T22:22:24;34.60;;;15.05;;
69280;SDS011;56392;51.082;17.080;2024-03-06T22:27:47;36.63;;;15.53;;
69280;SDS011;56392;51.082;17.080;2024-03-06T22:33:13;35.58;;;14.98;;
69280;SDS011;56392;51.082;17.080;2024-03-06T22:38:38;35.47;;;15.57;;
69280;SDS011;56392;51.082;17.080;2024-03-06T22:44:01;36.37;;;15.50;;
69280;SDS011;56392;51.082;17.080;2024-03-06T22:49:26;36.20;;;15.60;;
69280;SDS011;56392;51.082;17.080;2024-03-06T22:54:51;32.80;;;15.60;;
69280;SDS011;56392;51.082;17.080;2024-03-06T23:00:15;35.65;;;15.43;;
69280;SDS011;56392;51.082;17.080;2024-03-06T23:05:50;36.97;;;15.80;;
69280;SDS011;56392;51.082;17.080;2024-03-06T23:11:15;38.90;;;15.48;;
69280;SDS011;56392;51.082;17.080;2024-03-06T23:16:38;36.55;;;16.30;;
69280;SDS011;56392;51.082;17.080;2024-03-06T23:22:03;38.93;;;15.70;;
69280;SDS011;56392;51.082;17.080;2024-03-06T23:27:28;35.15;;;15.38;;
69280;SDS011;56392;51.082;17.080;2024-03-06T23:32:51;39.00;;;16.60;;
69280;SDS011;56392;51.082;17.080;2024-03-06T23:38:16;38.87;;;17.23;;
69280;SDS011;56392;51.082;17.080;2024-03-06T23:43:44;44.33;;;16.50;;
69280;SDS011;56392;51.082;17.080;2024-03-06T23:49:07;37.60;;;15.40;;
69280;SDS011;56392;51.082;17.080;2024-03-06T23:54:30;42.10;;;16.90;;
69280;SDS011;56392;51.082;17.080;2024-03-06T23:59:56;40.30;;;16.77;;
